Time;durP1;ratioP1;P1;durP2;ratioP2;P2;SDS_P1;SDS_P2;PMS_P1;PMS_P2;Temp;Humidity;BMP_temperature;BMP_pressure;BME280_temperature;BME280_humidity;BME280_pressure;Samples;Min_cycle;Max_cycle;Signal;HPM_P1;HPM_P2
2022/05/02 00:02:21;;;;;;;6.53;4.18;;;;;;;;;;5040596;28;20021;-70
2022/05/02 00:04:47;;;;;;;6.25;3.55;;;;;;;;;;5041377;28;20033;-71
2022/05/02 00:07:13;;;;;;;5.13;3.70;;;;;;;;;;5040370;28;20032;-71
2022/05/02 00:09:39;;;;;;;7.93;3.70;;;;;;;;;;5039620;28;20033;-70
2022/05/02 00:12:05;;;;;;;6.82;3.63;;;;;;;;;;5037506;28;20033;-71
2022/05/02 00:14:31;;;;;;;5.45;3.60;;;;;;;;;;5039556;28;20072;-70
2022/05/02 00:16:56;;;;;;;9.88;3.78;;;;;;;;;;5038401;28;20071;-70
2022/05/02 00:19:22;;;;;;;14.32;4.50;;;;;;;;;;5037137;28;20029;-70
2022/05/02 00:21:48;;;;;;;3.58;3.15;;;;;;;;;;5032716;28;20108;-71
2022/05/02 00:24:13;;;;;;;4.63;3.88;;;;;;;;;;5035606;28;20028;-71
2022/05/02 00:26:39;;;;;;;6.72;3.97;;;;;;;;;;5035223;28;20398;-71
2022/05/02 00:29:05;;;;;;;4.38;3.97;;;;;;;;;;5032530;28;20092;-70
2022/05/02 00:31:30;;;;;;;6.20;4.03;;;;;;;;;;5040181;28;20601;-71
2022/05/02 00:33:56;;;;;;;6.75;3.85;;;;;;;;;;5034959;28;20062;-71
2022/05/02 00:36:22;;;;;;;7.30;3.67;;;;;;;;;;5035854;28;20025;-71
2022/05/02 00:38:47;;;;;;;8.02;4.32;;;;;;;;;;5037712;28;20033;-71
2022/05/02 00:41:14;;;;;;;11.27;4.30;;;;;;;;;;5035597;28;20036;-71
2022/05/02 00:43:40;;;;;;;7.18;3.90;;;;;;;;;;5035706;28;20113;-70
2022/05/02 00:46:35;;;;;;;8.02;4.45;;;;;;;;;;5037721;28;20083;-71
2022/05/02 00:49:01;;;;;;;8.68;4.82;;;;;;;;;;5029446;28;20044;-71
2022/05/02 00:51:27;;;;;;;5.00;4.28;;;;;;;;;;5035933;28;20036;-71
2022/05/02 00:53:53;;;;;;;8.32;4.00;;;;;;;;;;5037109;28;20037;-71
2022/05/02 00:56:22;;;;;;;6.75;4.60;;;;;;;;;;5032158;28;20030;-71
2022/05/02 00:58:49;;;;;;;5.88;3.92;;;;;;;;;;5036940;28;20029;-71
2022/05/02 01:01:15;;;;;;;9.10;4.10;;;;;;;;;;5039105;28;20199;-71
2022/05/02 01:03:40;;;;;;;6.72;4.35;;;;;;;;;;5036355;28;20481;-71
2022/05/02 01:08:52;;;;;;;10.68;4.00;;;;;;;;;;5043355;28;20437;-71
2022/05/02 01:11:18;;;;;;;5.13;3.90;;;;;;;;;;5040914;28;20036;-70
2022/05/02 01:13:46;;;;;;;7.55;3.70;;;;;;;;;;5038508;28;20036;-70
2022/05/02 01:16:17;;;;;;;7.32;3.75;;;;;;;;;;5041010;28;20041;-71
2022/05/02 01:18:44;;;;;;;5.57;3.87;;;;;;;;;;5036130;28;20583;-71
2022/05/02 01:21:14;;;;;;;5.10;3.72;;;;;;;;;;5039057;28;20033;-70
2022/05/02 01:23:41;;;;;;;11.38;4.63;;;;;;;;;;5033915;28;20032;-71
2022/05/02 01:26:07;;;;;;;4.32;3.80;;;;;;;;;;5044913;28;20033;-70
2022/05/02 01:28:44;;;;;;;9.60;4.25;;;;;;;;;;5042207;28;20044;-70
2022/05/02 01:31:10;;;;;;;5.47;3.70;;;;;;;;;;5038399;28;20112;-70
2022/05/02 01:33:36;;;;;;;5.13;4.05;;;;;;;;;;5040327;28;20447;-70
2022/05/02 01:36:02;;;;;;;6.28;5.15;;;;;;;;;;5037807;28;20079;-71
2022/05/02 01:38:28;;;;;;;8.02;3.90;;;;;;;;;;5041682;28;20032;-70
2022/05/02 01:40:54;;;;;;;6.35;3.97;;;;;;;;;;5043213;28;20033;-70
2022/05/02 01:43:19;;;;;;;5.65;4.10;;;;;;;;;;5041280;28;20056;-71
2022/05/02 01:45:45;;;;;;;7.20;4.13;;;;;;;;;;5039167;28;20039;-71
2022/05/02 01:48:10;;;;;;;5.78;4.00;;;;;;;;;;5038046;28;20037;-71
2022/05/02 01:50:36;;;;;;;9.90;3.70;;;;;;;;;;5045406;28;20056;-71
2022/05/02 01:53:02;;;;;;;5.97;4.55;;;;;;;;;;5041941;28;20028;-71
2022/05/02 01:55:28;;;;;;;7.43;4.25;;;;;;;;;;5041637;28;20060;-71
2022/05/02 01:57:53;;;;;;;5.15;4.15;;;;;;;;;;5039169;28;20801;-71
2022/05/02 02:00:19;;;;;;;4.20;3.47;;;;;;;;;;5035735;28;20018;-71
2022/05/02 02:02:45;;;;;;;7.35;4.03;;;;;;;;;;5039340;28;20080;-70
2022/05/02 02:07:55;;;;;;;5.60;3.78;;;;;;;;;;5042923;28;20120;-70
2022/05/02 02:10:21;;;;;;;7.18;3.88;;;;;;;;;;5037763;28;20434;-70
2022/05/02 02:12:46;;;;;;;6.50;3.45;;;;;;;;;;5039727;28;20033;-71
2022/05/02 02:15:14;;;;;;;4.03;3.60;;;;;;;;;;5036449;28;20036;-71
2022/05/02 02:17:43;;;;;;;3.92;3.40;;;;;;;;;;5033403;28;20489;-70
2022/05/02 02:20:10;;;;;;;7.70;3.90;;;;;;;;;;5034001;28;20064;-70
2022/05/02 02:22:37;;;;;;;6.00;4.07;;;;;;;;;;5038337;28;20032;-71
2022/05/02 02:25:04;;;;;;;5.53;3.70;;;;;;;;;;5039090;28;20113;-70
2022/05/02 02:27:31;;;;;;;3.88;3.47;;;;;;;;;;5040809;28;20120;-71
2022/05/02 02:29:58;;;;;;;8.30;3.97;;;;;;;;;;5034038;28;20045;-71
2022/05/02 02:32:24;;;;;;;4.40;3.65;;;;;;;;;;5037460;28;20026;-70
2022/05/02 02:34:49;;;;;;;5.32;3.65;;;;;;;;;;5040461;28;20067;-70
2022/05/02 02:37:18;;;;;;;4.72;3.40;;;;;;;;;;5038784;28;20068;-71
2022/05/02 02:39:45;;;;;;;5.38;3.53;;;;;;;;;;5034984;28;20395;-70
2022/05/02 02:42:11;;;;;;;8.00;3.35;;;;;;;;;;5036326;28;20063;-70
2022/05/02 02:44:37;;;;;;;6.97;4.07;;;;;;;;;;5039522;28;20034;-70
2022/05/02 02:47:03;;;;;;;4.63;3.28;;;;;;;;;;5034221;28;20079;-71
2022/05/02 02:49:28;;;;;;;5.47;3.80;;;;;;;;;;5036620;28;20040;-71
2022/05/02 02:51:54;;;;;;;6.32;3.53;;;;;;;;;;5035024;28;20041;-70
2022/05/02 02:54:20;;;;;;;4.55;3.40;;;;;;;;;;5036322;28;20037;-71
2022/05/02 02:56:46;;;;;;;6.45;3.35;;;;;;;;;;5041040;28;20034;-70
2022/05/02 02:59:12;;;;;;;5.28;4.07;;;;;;;;;;5035835;28;20029;-70
2022/05/02 03:01:39;;;;;;;3.70;3.40;;;;;;;;;;5034091;28;20026;-71
2022/05/02 03:06:51;;;;;;;4.72;3.95;;;;;;;;;;5036978;28;20025;-71
2022/05/02 03:09:16;;;;;;;4.03;3.72;;;;;;;;;;5039665;28;20037;-70
2022/05/02 03:11:42;;;;;;;4.90;3.92;;;;;;;;;;5034747;28;20468;-71
2022/05/02 03:14:08;;;;;;;3.95;3.55;;;;;;;;;;5035634;28;20037;-70
2022/05/02 03:16:34;;;;;;;5.47;3.40;;;;;;;;;;5036248;28;20037;-70
2022/05/02 03:18:59;;;;;;;4.75;4.10;;;;;;;;;;5035868;28;20033;-70
2022/05/02 03:21:25;;;;;;;7.32;3.60;;;;;;;;;;5037429;28;20554;-70
2022/05/02 03:23:51;;;;;;;7.57;3.95;;;;;;;;;;5036147;28;20061;-72
2022/05/02 03:26:16;;;;;;;6.30;3.75;;;;;;;;;;5037141;28;20288;-70
2022/05/02 03:28:42;;;;;;;5.38;3.85;;;;;;;;;;5032037;28;20037;-71
2022/05/02 03:31:08;;;;;;;4.65;3.50;;;;;;;;;;5035614;28;20549;-70
2022/05/02 03:33:33;;;;;;;6.13;4.15;;;;;;;;;;5034777;28;20033;-70
2022/05/02 03:35:59;;;;;;;10.38;3.90;;;;;;;;;;5032781;28;20446;-70
2022/05/02 03:38:25;;;;;;;6.20;3.38;;;;;;;;;;5034276;28;20393;-71
2022/05/02 03:40:50;;;;;;;5.97;3.55;;;;;;;;;;5036047;28;20029;-70
2022/05/02 03:43:16;;;;;;;7.35;3.50;;;;;;;;;;5035802;28;20041;-70
2022/05/02 03:45:41;;;;;;;8.60;3.65;;;;;;;;;;5037579;28;20024;-70
2022/05/02 03:48:08;;;;;;;5.15;3.50;;;;;;;;;;5035516;28;20036;-70
2022/05/02 03:50:33;;;;;;;9.18;3.88;;;;;;;;;;5037094;28;20037;-70
2022/05/02 03:52:59;;;;;;;5.28;3.85;;;;;;;;;;5037651;28;20371;-71
2022/05/02 03:55:25;;;;;;;5.13;3.92;;;;;;;;;;5041466;28;20056;-70
2022/05/02 03:57:50;;;;;;;3.50;3.30;;;;;;;;;;5037197;28;20071;-70
2022/05/02 04:00:17;;;;;;;4.65;3.80;;;;;;;;;;5037888;28;20509;-70
2022/05/02 04:02:42;;;;;;;7.22;3.38;;;;;;;;;;5039809;28;20104;-71
2022/05/02 04:05:09;;;;;;;6.13;3.70;;;;;;;;;;5036884;28;20029;-71
2022/05/02 04:07:35;;;;;;;3.75;3.42;;;;;;;;;;5035845;28;20378;-70
2022/05/02 04:10:01;;;;;;;5.63;3.60;;;;;;;;;;5040755;28;20039;-70
2022/05/02 04:12:34;;;;;;;4.05;3.65;;;;;;;;;;5036148;28;20064;-71
2022/05/02 04:15:00;;;;;;;3.65;3.35;;;;;;;;;;5036927;28;20033;-70
2022/05/02 04:17:26;;;;;;;5.45;3.70;;;;;;;;;;5067179;28;20029;-70
2022/05/02 04:19:51;;;;;;;6.38;3.92;;;;;;;;;;5035595;28;20356;-70
2022/05/02 04:22:17;;;;;;;4.22;3.60;;;;;;;;;;5036994;28;20052;-70
2022/05/02 04:24:43;;;;;;;5.57;3.47;;;;;;;;;;5037890;28;20021;-70
2022/05/02 04:27:08;;;;;;;5.28;3.63;;;;;;;;;;5035857;28;20439;-71
2022/05/02 04:29:34;;;;;;;6.05;4.13;;;;;;;;;;5032109;28;20445;-70
2022/05/02 04:32:00;;;;;;;8.20;4.22;;;;;;;;;;5034774;28;20041;-70
2022/05/02 04:34:26;;;;;;;5.05;3.38;;;;;;;;;;5042314;28;20482;-70
2022/05/02 04:36:52;;;;;;;4.60;4.13;;;;;;;;;;5035879;28;20029;-71
2022/05/02 04:39:17;;;;;;;5.22;3.85;;;;;;;;;;5068405;28;20048;-70
2022/05/02 04:41:43;;;;;;;6.40;3.92;;;;;;;;;;5041786;28;20067;-69
2022/05/02 04:44:09;;;;;;;7.38;4.05;;;;;;;;;;5043572;28;20414;-70
2022/05/02 04:46:34;;;;;;;4.55;4.03;;;;;;;;;;5041165;28;20021;-70
2022/05/02 04:49:00;;;;;;;4.28;3.50;;;;;;;;;;5040097;28;20028;-70
2022/05/02 04:51:26;;;;;;;5.10;3.60;;;;;;;;;;5042347;28;20565;-70
2022/05/02 04:53:52;;;;;;;4.95;3.55;;;;;;;;;;5035621;28;20036;-70
2022/05/02 04:56:17;;;;;;;7.30;3.75;;;;;;;;;;5035114;28;20028;-69
2022/05/02 04:58:43;;;;;;;9.60;3.83;;;;;;;;;;5038778;28;20098;-69
2022/05/02 05:01:09;;;;;;;4.90;3.50;;;;;;;;;;5041599;28;20113;-69
2022/05/02 05:03:36;;;;;;;6.07;3.33;;;;;;;;;;5039859;28;20078;-70
2022/05/02 05:06:02;;;;;;;4.10;3.70;;;;;;;;;;5040030;28;20013;-70
2022/05/02 05:08:28;;;;;;;3.47;3.20;;;;;;;;;;5036632;28;20033;-69
2022/05/02 05:11:16;;;;;;;11.13;3.60;;;;;;;;;;5040895;28;20037;-69
2022/05/02 05:17:22;;;;;;;4.00;3.20;;;;;;;;;;5039184;28;20474;-70
2022/05/02 05:20:07;;;;;;;4.90;3.25;;;;;;;;;;5036828;28;20086;-70
2022/05/02 05:22:38;;;;;;;5.25;3.65;;;;;;;;;;5045671;28;20033;-69
2022/05/02 05:25:22;;;;;;;4.60;3.47;;;;;;;;;;5037382;28;20513;-69
2022/05/02 05:28:00;;;;;;;3.83;3.40;;;;;;;;;;5043788;28;20044;-69
2022/05/02 05:30:27;;;;;;;4.72;3.50;;;;;;;;;;5039853;28;20479;-70
2022/05/02 05:33:42;;;;;;;5.47;3.38;;;;;;;;;;5044308;28;20024;-71
2022/05/02 05:36:50;;;;;;;5.88;3.28;;;;;;;;;;5004765;28;20085;-70
2022/05/02 05:39:36;;;;;;;3.63;3.33;;;;;;;;;;5005308;28;20099;-70
2022/05/02 05:42:05;;;;;;;5.88;3.20;;;;;;;;;;4966234;28;20672;-70
2022/05/02 05:44:47;;;;;;;5.95;2.90;;;;;;;;;;4967348;28;20043;-71
2022/05/02 05:47:31;;;;;;;4.45;3.90;;;;;;;;;;4963425;28;20045;-71
2022/05/02 05:50:08;;;;;;;6.95;3.00;;;;;;;;;;4967047;28;20411;-70
2022/05/02 05:52:39;;;;;;;5.00;3.50;;;;;;;;;;4962207;28;20050;-70
2022/05/02 05:55:07;;;;;;;6.43;3.60;;;;;;;;;;4961305;28;20484;-71
2022/05/02 05:58:08;;;;;;;3.42;3.13;;;;;;;;;;4961375;28;20046;-70
2022/05/02 06:00:42;;;;;;;5.80;3.45;;;;;;;;;;4963471;28;20242;-71
2022/05/02 06:03:13;;;;;;;4.50;3.17;;;;;;;;;;4960166;28;20039;-71
2022/05/02 06:05:41;;;;;;;7.53;3.60;;;;;;;;;;4968880;28;20500;-71
2022/05/02 06:08:21;;;;;;;5.38;2.92;;;;;;;;;;4964598;28;20133;-71
2022/05/02 06:10:51;;;;;;;5.78;3.10;;;;;;;;;;4965594;28;20070;-71
2022/05/02 06:13:19;;;;;;;5.47;3.45;;;;;;;;;;4975504;28;20403;-71
2022/05/02 06:18:38;;;;;;;4.90;3.40;;;;;;;;;;4989312;28;20056;-71
2022/05/02 06:21:05;;;;;;;7.32;3.42;;;;;;;;;;5036028;28;20028;-71
2022/05/02 06:23:42;;;;;;;3.80;3.10;;;;;;;;;;5043199;28;20020;-71
2022/05/02 06:26:09;;;;;;;4.72;3.30;;;;;;;;;;5037312;28;20065;-71
2022/05/02 06:28:43;;;;;;;3.60;3.30;;;;;;;;;;5036655;28;20061;-71
2022/05/02 06:31:15;;;;;;;5.97;3.35;;;;;;;;;;5037526;28;20080;-72
2022/05/02 06:33:44;;;;;;;8.85;4.07;;;;;;;;;;5039975;28;20071;-71
2022/05/02 06:36:29;;;;;;;4.63;3.58;;;;;;;;;;5039673;28;20028;-72
2022/05/02 06:39:02;;;;;;;6.47;3.50;;;;;;;;;;5040244;28;20041;-71
2022/05/02 06:41:46;;;;;;;4.68;3.17;;;;;;;;;;5036729;28;20098;-72
2022/05/02 06:44:34;;;;;;;9.38;3.15;;;;;;;;;;5040719;28;20041;-71
2022/05/02 06:47:15;;;;;;;4.85;3.25;;;;;;;;;;5036684;28;20032;-72
2022/05/02 06:49:43;;;;;;;9.02;3.17;;;;;;;;;;5037493;28;20078;-72
2022/05/02 06:52:11;;;;;;;3.35;2.90;;;;;;;;;;5035908;28;20033;-71
2022/05/02 06:54:55;;;;;;;7.25;2.90;;;;;;;;;;5041655;28;20041;-70
2022/05/02 06:57:52;;;;;;;5.47;2.95;;;;;;;;;;5034159;28;20478;-72
2022/05/02 07:00:20;;;;;;;3.40;3.10;;;;;;;;;;5037618;28;20046;-71
2022/05/02 07:03:10;;;;;;;5.03;2.78;;;;;;;;;;5043426;28;20033;-71
2022/05/02 07:05:57;;;;;;;4.78;3.50;;;;;;;;;;5036558;28;20025;-71
2022/05/02 07:08:28;;;;;;;5.50;2.83;;;;;;;;;;5033266;28;20084;-72
2022/05/02 07:11:06;;;;;;;4.43;2.97;;;;;;;;;;5034846;28;20045;-66
2022/05/02 07:13:56;;;;;;;9.85;3.42;;;;;;;;;;5037079;28;20030;-71
2022/05/02 07:16:24;;;;;;;10.00;3.15;;;;;;;;;;5040226;28;20375;-71
2022/05/02 07:19:00;;;;;;;2.97;2.75;;;;;;;;;;5039832;28;20113;-71
2022/05/02 07:21:38;;;;;;;3.85;3.45;;;;;;;;;;5037802;28;20033;-71
2022/05/02 07:24:09;;;;;;;3.55;2.80;;;;;;;;;;5036691;28;20029;-70
2022/05/02 07:26:37;;;;;;;5.53;2.97;;;;;;;;;;5044503;28;20111;-71
2022/05/02 07:29:04;;;;;;;13.57;3.70;;;;;;;;;;5040402;28;20087;-71
2022/05/02 07:31:31;;;;;;;2.88;2.63;;;;;;;;;;5036657;28;20041;-71
2022/05/02 07:33:58;;;;;;;19.75;4.13;;;;;;;;;;5041240;28;20037;-71
2022/05/02 07:36:26;;;;;;;2.80;2.55;;;;;;;;;;5034805;28;20493;-70
2022/05/02 07:39:01;;;;;;;21.90;4.25;;;;;;;;;;5034176;28;20028;-71
2022/05/02 07:41:27;;;;;;;4.20;3.25;;;;;;;;;;5036733;28;20145;-70
2022/05/02 07:44:04;;;;;;;6.60;3.13;;;;;;;;;;5036956;28;20033;-70
2022/05/02 07:46:42;;;;;;;5.97;2.70;;;;;;;;;;5036088;28;20029;-70
2022/05/02 07:49:10;;;;;;;2.78;2.58;;;;;;;;;;5038835;28;20045;-69
2022/05/02 07:51:52;;;;;;;4.80;3.17;;;;;;;;;;5036225;28;20032;-69
2022/05/02 07:54:30;;;;;;;3.78;2.58;;;;;;;;;;5035429;28;20441;-70
2022/05/02 07:57:01;;;;;;;11.35;3.28;;;;;;;;;;5038838;28;20477;-70
2022/05/02 07:59:39;;;;;;;23.13;3.95;;;;;;;;;;5034186;28;20033;-70
2022/05/02 08:02:06;;;;;;;7.28;3.38;;;;;;;;;;5035800;28;20044;-70
2022/05/02 08:04:32;;;;;;;7.82;2.50;;;;;;;;;;5036512;28;20450;-70
2022/05/02 08:07:37;;;;;;;3.83;2.92;;;;;;;;;;5037598;28;20529;-69
2022/05/02 08:10:40;;;;;;;6.47;3.25;;;;;;;;;;5031812;28;20051;-70
2022/05/02 08:13:25;;;;;;;5.00;2.85;;;;;;;;;;5038569;28;20036;-69
2022/05/02 08:16:14;;;;;;;6.32;2.90;;;;;;;;;;5037430;28;20032;-70
2022/05/02 08:18:53;;;;;;;4.22;2.90;;;;;;;;;;5038158;28;20086;-69
2022/05/02 08:21:37;;;;;;;7.60;2.70;;;;;;;;;;5036493;28;20029;-70
2022/05/02 08:27:19;;;;;;;4.85;2.35;;;;;;;;;;5034814;28;20029;-69
2022/05/02 08:30:14;;;;;;;7.00;3.00;;;;;;;;;;5037156;28;20502;-69
2022/05/02 08:33:08;;;;;;;7.10;2.92;;;;;;;;;;5035846;28;20044;-69
2022/05/02 08:35:49;;;;;;;7.80;3.03;;;;;;;;;;5031773;28;20037;-67
2022/05/02 08:38:45;;;;;;;5.97;2.85;;;;;;;;;;5032510;28;20112;-68
2022/05/02 08:41:19;;;;;;;4.90;2.85;;;;;;;;;;5035907;28;20029;-69
2022/05/02 08:43:56;;;;;;;8.32;2.95;;;;;;;;;;5036652;28;20364;-68
2022/05/02 08:46:46;;;;;;;8.10;2.30;;;;;;;;;;5035593;28;20487;-68
2022/05/02 08:49:49;;;;;;;5.00;2.78;;;;;;;;;;5036616;28;20402;-68
2022/05/02 08:52:40;;;;;;;;;;;;;;;;;;5037631;28;20057;-69
2022/05/02 08:55:21;;;;;;;11.85;2.88;;;;;;;;;;5040227;28;19917;-68
2022/05/02 08:58:04;;;;;;;5.22;3.22;;;;;;;;;;5035472;28;20032;-68
2022/05/02 09:00:41;;;;;;;5.07;3.63;;;;;;;;;;5041608;28;20034;-69
2022/05/02 09:03:07;;;;;;;9.05;4.40;;;;;;;;;;5031627;28;20083;-69
2022/05/02 09:05:58;;;;;;;7.30;4.28;;;;;;;;;;5031293;28;20426;-69
2022/05/02 09:08:42;;;;;;;9.32;4.53;;;;;;;;;;5038087;28;20087;-69
2022/05/02 09:11:46;;;;;;;7.68;5.15;;;;;;;;;;5034529;28;20486;-68
2022/05/02 09:14:49;;;;;;;12.68;5.05;;;;;;;;;;4986438;28;20089;-68
2022/05/02 09:17:52;;;;;;;8.05;4.60;;;;;;;;;;4982433;28;20035;-68
2022/05/02 09:20:36;;;;;;;8.82;4.78;;;;;;;;;;4984547;28;20693;-68
2022/05/02 09:23:29;;;;;;;11.00;4.50;;;;;;;;;;4985968;28;20120;-68
2022/05/02 09:26:07;;;;;;;13.13;4.78;;;;;;;;;;4988972;28;20037;-68
2022/05/02 09:28:38;;;;;;;6.60;4.32;;;;;;;;;;4988769;28;20046;-68
2022/05/02 09:31:19;;;;;;;7.72;4.18;;;;;;;;;;4989100;28;20038;-68
2022/05/02 09:34:15;;;;;;;3.65;3.20;;;;;;;;;;4988516;28;20041;-68
2022/05/02 09:36:47;;;;;;;6.18;4.35;;;;;;;;;;4986634;28;20073;-68
2022/05/02 09:39:15;;;;;;;4.55;3.40;;;;;;;;;;4989416;28;20039;-68
2022/05/02 09:42:02;;;;;;;5.93;3.50;;;;;;;;;;4988946;28;20068;-68
2022/05/02 09:51:34;;;;;;;8.43;3.60;;;;;;;;;;5035948;28;20150;-67
2022/05/02 09:57:51;;;;;;;6.80;3.30;;;;;;;;;;5037218;28;20120;-68
2022/05/02 10:03:33;;;;;;;5.07;3.03;;;;;;;;;;5035604;28;20057;-67
2022/05/02 10:06:10;;;;;;;4.57;3.38;;;;;;;;;;5036517;28;20123;-68
2022/05/02 10:09:00;;;;;;;3.22;2.90;;;;;;;;;;5035783;28;20033;-68
2022/05/02 10:11:51;;;;;;;4.32;2.92;;;;;;;;;;5035926;28;20057;-67
2022/05/02 10:14:44;;;;;;;5.57;2.90;;;;;;;;;;5037390;28;20041;-67
2022/05/02 10:17:17;;;;;;;2.80;2.60;;;;;;;;;;4992598;28;20542;-67
2022/05/02 10:19:46;;;;;;;2.97;2.47;;;;;;;;;;4997733;28;20053;-67
2022/05/02 10:22:12;;;;;;;4.45;2.97;;;;;;;;;;5002198;28;20030;-67
2022/05/02 10:24:37;;;;;;;4.00;2.88;;;;;;;;;;4998011;28;20473;-66
2022/05/02 10:27:41;;;;;;;4.35;2.20;;;;;;;;;;4993470;28;20022;-68
2022/05/02 10:30:11;;;;;;;4.90;2.22;;;;;;;;;;4998723;28;20033;-67
2022/05/02 10:33:02;;;;;;;4.15;2.40;;;;;;;;;;4995685;28;20041;-68
2022/05/02 10:35:28;;;;;;;4.05;2.28;;;;;;;;;;4997496;28;20572;-67
2022/05/02 10:38:02;;;;;;;4.28;2.63;;;;;;;;;;4997384;28;20230;-67
2022/05/02 10:40:37;;;;;;;8.07;2.92;;;;;;;;;;4998237;28;20088;-67
2022/05/02 10:43:06;;;;;;;8.50;2.85;;;;;;;;;;4999140;28;20052;-67
2022/05/02 10:45:34;;;;;;;6.07;2.80;;;;;;;;;;4997433;28;20053;-68
2022/05/02 10:48:25;;;;;;;3.83;2.92;;;;;;;;;;4994304;28;20058;-68
2022/05/02 10:50:59;;;;;;;5.68;3.25;;;;;;;;;;4993320;28;20029;-66
2022/05/02 10:53:28;;;;;;;4.53;2.80;;;;;;;;;;5004833;28;20513;-68
2022/05/02 10:56:19;;;;;;;6.07;3.08;;;;;;;;;;5040168;28;20139;-66
2022/05/02 10:58:46;;;;;;;7.05;3.05;;;;;;;;;;5041591;28;20513;-67
2022/05/02 11:01:33;;;;;;;5.57;2.90;;;;;;;;;;5036766;28;20490;-67
2022/05/02 11:04:24;;;;;;;9.18;3.15;;;;;;;;;;5037640;28;20112;-67
2022/05/02 11:07:33;;;;;;;4.35;2.78;;;;;;;;;;5041900;28;20028;-68
2022/05/02 11:10:10;;;;;;;9.85;2.70;;;;;;;;;;5005345;28;20042;-67
2022/05/02 11:12:50;;;;;;;6.15;2.92;;;;;;;;;;5005367;28;20041;-67
2022/05/02 11:15:43;;;;;;;3.03;2.55;;;;;;;;;;5002556;28;20043;-67
2022/05/02 11:21:44;;;;;;;5.60;2.50;;;;;;;;;;4986967;28;20046;-67
2022/05/02 11:24:30;;;;;;;5.60;2.75;;;;;;;;;;4981718;28;20034;-67
2022/05/02 11:27:20;;;;;;;3.03;2.67;;;;;;;;;;4986495;28;20053;-67
2022/05/02 11:29:51;;;;;;;6.57;3.35;;;;;;;;;;4987159;28;20109;-67
2022/05/02 11:32:39;;;;;;;9.40;3.65;;;;;;;;;;4984727;28;20034;-67
2022/05/02 11:35:16;;;;;;;5.63;3.88;;;;;;;;;;4986817;28;20038;-67
2022/05/02 11:37:54;;;;;;;4.47;3.75;;;;;;;;;;4987260;28;20042;-67
2022/05/02 11:40:28;;;;;;;10.32;5.15;;;;;;;;;;4984189;28;20038;-68
2022/05/02 11:42:54;;;;;;;10.55;4.78;;;;;;;;;;4986385;28;20050;-67
2022/05/02 11:45:28;;;;;;;7.78;4.53;;;;;;;;;;4985994;28;20034;-69
2022/05/02 11:48:21;;;;;;;5.60;4.40;;;;;;;;;;4998166;28;20045;-68
2022/05/02 11:50:48;;;;;;;8.27;4.78;;;;;;;;;;5004427;28;20029;-68
2022/05/02 11:53:16;;;;;;;11.52;4.30;;;;;;;;;;5005030;28;20032;-67
2022/05/02 11:55:46;;;;;;;6.95;5.10;;;;;;;;;;5027476;28;20037;-68
2022/05/02 11:58:24;;;;;;;7.70;4.70;;;;;;;;;;5037678;28;20037;-68
2022/05/02 12:00:54;;;;;;;9.00;5.32;;;;;;;;;;5033435;28;20033;-67
2022/05/02 12:03:24;;;;;;;9.13;5.07;;;;;;;;;;5035226;28;20025;-68
2022/05/02 12:05:52;;;;;;;11.13;4.70;;;;;;;;;;5036189;28;20030;-68
2022/05/02 12:08:36;;;;;;;9.20;5.18;;;;;;;;;;5031422;28;20045;-68
2022/05/02 12:11:07;;;;;;;13.57;6.18;;;;;;;;;;5036320;28;20079;-68
2022/05/02 12:13:35;;;;;;;10.80;5.38;;;;;;;;;;5033237;28;20033;-67
2022/05/02 12:16:04;;;;;;;9.43;4.70;;;;;;;;;;5037369;28;20037;-68
2022/05/02 12:18:51;;;;;;;6.13;4.32;;;;;;;;;;5035185;28;20027;-67
2022/05/02 12:21:36;;;;;;;7.53;3.95;;;;;;;;;;5034171;28;20041;-67
2022/05/02 12:24:04;;;;;;;5.80;3.88;;;;;;;;;;5042754;28;20033;-67
2022/05/02 12:26:32;;;;;;;7.30;4.15;;;;;;;;;;5031218;28;20038;-67
2022/05/02 12:29:04;;;;;;;7.00;4.20;;;;;;;;;;5036136;28;20041;-67
2022/05/02 12:31:32;;;;;;;5.90;3.42;;;;;;;;;;5035669;28;20091;-67
2022/05/02 12:34:12;;;;;;;8.77;3.47;;;;;;;;;;5034927;28;20049;-67
2022/05/02 12:36:43;;;;;;;7.85;4.18;;;;;;;;;;5034845;28;20540;-67
2022/05/02 12:39:13;;;;;;;4.90;3.45;;;;;;;;;;5034022;28;20689;-67
2022/05/02 12:41:50;;;;;;;8.05;3.75;;;;;;;;;;5032026;28;20446;-67
2022/05/02 12:44:18;;;;;;;5.15;3.75;;;;;;;;;;5034349;28;20116;-68
2022/05/02 12:46:48;;;;;;;6.28;4.43;;;;;;;;;;5038631;28;20033;-66
2022/05/02 12:49:52;;;;;;;5.82;4.60;;;;;;;;;;5040782;28;20826;-67
2022/05/02 12:52:20;;;;;;;7.63;3.95;;;;;;;;;;5034402;28;20445;-68
2022/05/02 12:54:49;;;;;;;6.50;4.10;;;;;;;;;;5036885;28;20037;-67
2022/05/02 13:02:52;;;;;;;7.65;3.42;;;;;;;;;;5035314;28;20032;-66
2022/05/02 13:05:22;;;;;;;13.07;3.60;;;;;;;;;;5037296;28;20124;-68
2022/05/02 13:07:53;;;;;;;5.50;3.60;;;;;;;;;;5045574;28;20029;-68
2022/05/02 13:10:26;;;;;;;6.60;3.45;;;;;;;;;;5040490;28;20041;-67
2022/05/02 13:13:12;;;;;;;7.05;3.17;;;;;;;;;;5042254;28;20032;-67
2022/05/02 13:15:49;;;;;;;4.40;3.03;;;;;;;;;;5040979;28;20473;-69
2022/05/02 13:18:16;;;;;;;9.25;4.28;;;;;;;;;;5037901;28;20037;-67
2022/05/02 13:20:44;;;;;;;11.93;3.47;;;;;;;;;;5044822;28;20053;-68
2022/05/02 13:23:13;;;;;;;6.40;3.55;;;;;;;;;;5038762;28;20425;-67
2022/05/02 13:26:03;;;;;;;8.68;4.85;;;;;;;;;;5042024;28;20037;-68
2022/05/02 13:28:41;;;;;;;7.72;4.60;;;;;;;;;;5039570;28;20032;-68
2022/05/02 13:31:13;;;;;;;5.78;4.20;;;;;;;;;;5038296;28;20030;-68
2022/05/02 13:33:49;;;;;;;6.38;4.40;;;;;;;;;;5039515;28;20021;-68
2022/05/02 13:36:15;;;;;;;6.97;4.05;;;;;;;;;;5035227;28;20045;-64
2022/05/02 13:39:00;;;;;;;13.15;4.32;;;;;;;;;;5035728;28;20040;-68
2022/05/02 13:41:51;;;;;;;5.63;4.13;;;;;;;;;;5037576;28;20037;-67
2022/05/02 13:44:40;;;;;;;10.68;4.07;;;;;;;;;;5040042;28;20040;-67
2022/05/02 13:47:14;;;;;;;5.20;4.55;;;;;;;;;;5043322;28;20120;-68
2022/05/02 13:50:08;;;;;;;4.70;4.00;;;;;;;;;;5037901;28;20033;-67
2022/05/02 13:53:12;;;;;;;11.25;4.00;;;;;;;;;;5040483;28;20047;-65
2022/05/02 13:56:29;;;;;;;8.27;4.45;;;;;;;;;;5045598;28;20049;-68
2022/05/02 13:59:02;;;;;;;9.45;3.85;;;;;;;;;;5004863;28;20045;-66
2022/05/02 14:01:52;;;;;;;11.48;5.68;;;;;;;;;;4997561;28;20049;-68
2022/05/02 14:04:51;;;;;;;4.95;4.13;;;;;;;;;;5003048;28;20078;-67
2022/05/02 14:07:13;;;;;;;6.55;4.13;;;;;;;;;;5003438;28;20113;-68
2022/05/02 14:09:47;;;;;;;6.70;3.90;;;;;;;;;;5000732;28;20044;-69
2022/05/02 14:12:21;;;;;;;13.32;3.78;;;;;;;;;;5006616;28;20088;-67
2022/05/02 14:14:57;;;;;;;10.82;3.90;;;;;;;;;;4993957;28;20042;-67
2022/05/02 14:17:32;;;;;;;6.03;3.95;;;;;;;;;;5006786;28;20105;-67
2022/05/02 14:20:23;;;;;;;12.27;3.85;;;;;;;;;;4997638;28;20121;-67
2022/05/02 14:23:06;;;;;;;5.25;4.28;;;;;;;;;;5006154;28;20038;-68
2022/05/02 14:25:43;;;;;;;17.55;4.60;;;;;;;;;;5004745;28;20045;-68
2022/05/02 14:28:13;;;;;;;6.65;4.38;;;;;;;;;;5005046;28;20422;-68
2022/05/02 14:31:00;;;;;;;11.52;4.03;;;;;;;;;;5000764;28;20109;-68
2022/05/02 14:33:36;;;;;;;10.05;4.10;;;;;;;;;;5003071;28;20057;-68
2022/05/02 14:36:03;;;;;;;8.88;4.70;;;;;;;;;;5037018;28;20033;-68
2022/05/02 14:38:30;;;;;;;5.97;4.15;;;;;;;;;;5036328;28;20027;-68
2022/05/02 14:40:56;;;;;;;4.22;3.13;;;;;;;;;;5039246;28;20029;-68
2022/05/02 14:43:22;;;;;;;11.93;4.35;;;;;;;;;;5039219;28;20030;-68
2022/05/02 14:45:50;;;;;;;9.70;4.20;;;;;;;;;;5039803;28;20032;-68
2022/05/02 14:48:17;;;;;;;11.70;4.13;;;;;;;;;;5038236;28;20068;-67
2022/05/02 14:50:48;;;;;;;10.57;4.10;;;;;;;;;;5038536;28;20028;-67
2022/05/02 14:53:20;;;;;;;6.22;3.85;;;;;;;;;;5032863;28;20473;-69
2022/05/02 14:55:55;;;;;;;7.95;3.72;;;;;;;;;;5040130;28;20176;-67
2022/05/02 14:58:23;;;;;;;9.90;3.50;;;;;;;;;;5039783;28;20155;-68
2022/05/02 15:00:56;;;;;;;7.20;3.78;;;;;;;;;;5038395;28;20032;-67
2022/05/02 15:03:31;;;;;;;5.68;3.70;;;;;;;;;;5039627;28;20465;-67
2022/05/02 15:05:58;;;;;;;7.25;3.88;;;;;;;;;;5035009;28;20021;-67
2022/05/02 15:08:33;;;;;;;10.05;3.65;;;;;;;;;;5039393;28;20036;-68
2022/05/02 15:11:35;;;;;;;4.55;3.60;;;;;;;;;;5042995;28;20033;-66
2022/05/02 15:14:15;;;;;;;6.00;3.72;;;;;;;;;;5035583;28;20038;-67
2022/05/02 15:17:03;;;;;;;8.43;4.38;;;;;;;;;;5036244;28;20590;-67
2022/05/02 15:19:50;;;;;;;7.00;4.20;;;;;;;;;;5038854;28;20124;-67
2022/05/02 15:22:31;;;;;;;4.07;3.67;;;;;;;;;;5042420;28;20033;-67
2022/05/02 15:25:11;;;;;;;9.60;3.95;;;;;;;;;;5037114;28;20029;-67
2022/05/02 15:36:40;;;;;;;12.05;4.53;;;;;;;;;;5034207;28;20032;-67
2022/05/02 15:39:06;;;;;;;8.70;4.30;;;;;;;;;;5033332;28;20061;-67
2022/05/02 15:41:41;;;;;;;13.55;4.05;;;;;;;;;;5034259;28;20045;-66
2022/05/02 15:44:08;;;;;;;5.25;3.28;;;;;;;;;;5038072;28;20117;-67
2022/05/02 15:46:51;;;;;;;6.95;4.35;;;;;;;;;;5039431;28;20090;-68
2022/05/02 15:49:18;;;;;;;6.35;3.67;;;;;;;;;;5038002;28;20036;-68
2022/05/02 15:52:06;;;;;;;7.60;3.78;;;;;;;;;;5038467;28;20021;-68
2022/05/02 15:54:34;;;;;;;9.77;4.00;;;;;;;;;;5040212;28;20036;-68
2022/05/02 15:57:00;;;;;;;9.90;3.28;;;;;;;;;;5039572;28;20037;-67
2022/05/02 15:59:36;;;;;;;6.93;3.78;;;;;;;;;;5036146;28;20104;-67
2022/05/02 16:02:04;;;;;;;7.88;4.20;;;;;;;;;;5038578;28;20032;-68
2022/05/02 16:04:35;;;;;;;11.70;4.80;;;;;;;;;;5040790;28;20026;-68
2022/05/02 16:10:29;;;;;;;6.72;4.05;;;;;;;;;;5038139;28;20032;-68
2022/05/02 16:12:53;;;;;;;9.02;3.95;;;;;;;;;;5035951;28;20059;-68
2022/05/02 16:15:20;;;;;;;6.38;3.88;;;;;;;;;;5041492;28;20440;-68